Time;durP1;ratioP1;P1;durP2;ratioP2;P2;SDS_P1;SDS_P2;PMS_P1;PMS_P2;Temp;Humidity;BMP_temperature;BMP_pressure;BME280_temperature;BME280_humidity;BME280_pressure;Samples;Min_cycle;Max_cycle;Signal;HPM_P1;HPM_P2
2023/08/25 00:00:22;;;;;;;11.02;6.32;;;;;;;;;;5037878;28;20387;-77
2023/08/25 00:02:47;;;;;;;7.82;5.53;;;;;;;;;;5037758;28;20037;-77
2023/08/25 00:05:12;;;;;;;11.32;6.00;;;;;;;;;;5036411;28;20041;-77
2023/08/25 00:07:38;;;;;;;8.18;5.68;;;;;;;;;;5019893;28;20032;-77
2023/08/25 00:10:04;;;;;;;6.78;5.15;;;;;;;;;;5037203;28;20018;-77
2023/08/25 00:12:29;;;;;;;8.07;5.70;;;;;;;;;;5037580;28;20021;-77
2023/08/25 00:14:54;;;;;;;9.52;6.03;;;;;;;;;;5038179;28;20030;-77
2023/08/25 00:17:21;;;;;;;8.00;5.95;;;;;;;;;;5035750;28;20029;-77
2023/08/25 00:19:46;;;;;;;13.00;7.18;;;;;;;;;;5037158;28;20501;-77
2023/08/25 00:22:12;;;;;;;9.82;5.95;;;;;;;;;;5019688;28;20120;-77
2023/08/25 00:24:37;;;;;;;7.80;6.43;;;;;;;;;;5037619;28;20028;-77
2023/08/25 00:27:03;;;;;;;8.63;6.65;;;;;;;;;;5019665;28;20123;-77
2023/08/25 00:29:28;;;;;;;9.55;6.28;;;;;;;;;;5036826;28;20148;-77
2023/08/25 00:31:53;;;;;;;9.25;6.78;;;;;;;;;;5037238;28;20104;-77
2023/08/25 00:34:18;;;;;;;10.38;7.05;;;;;;;;;;5037115;28;20021;-77
2023/08/25 00:36:44;;;;;;;12.27;6.63;;;;;;;;;;5036030;28;20028;-77
2023/08/25 00:39:10;;;;;;;11.90;7.95;;;;;;;;;;5034803;28;20036;-77
2023/08/25 00:41:35;;;;;;;13.05;6.45;;;;;;;;;;5037423;28;20434;-77
2023/08/25 00:44:00;;;;;;;10.50;7.03;;;;;;;;;;5025607;28;20044;-77
2023/08/25 00:46:26;;;;;;;10.93;6.35;;;;;;;;;;5036931;28;20068;-77
2023/08/25 00:48:51;;;;;;;14.93;7.38;;;;;;;;;;5036690;28;20079;-77
2023/08/25 00:51:17;;;;;;;11.52;7.93;;;;;;;;;;5018692;28;20104;-77
2023/08/25 00:53:43;;;;;;;10.43;7.47;;;;;;;;;;5019255;28;20147;-77
2023/08/25 00:56:10;;;;;;;10.98;6.28;;;;;;;;;;5037038;28;20029;-77
2023/08/25 00:58:35;;;;;;;11.95;6.43;;;;;;;;;;5019219;28;20104;-77
2023/08/25 01:01:03;;;;;;;12.60;7.10;;;;;;;;;;5019206;28;20478;-77
2023/08/25 01:03:29;;;;;;;9.90;6.82;;;;;;;;;;5036188;28;20061;-77
2023/08/25 01:05:54;;;;;;;15.30;8.75;;;;;;;;;;5036578;28;20063;-77
2023/08/25 01:08:20;;;;;;;15.00;8.48;;;;;;;;;;5036477;28;20025;-77
2023/08/25 01:10:57;;;;;;;12.25;7.60;;;;;;;;;;5036397;28;20394;-77
2023/08/25 01:13:38;;;;;;;14.23;8.35;;;;;;;;;;5035764;28;20383;-77
2023/08/25 01:16:05;;;;;;;10.35;6.10;;;;;;;;;;5034954;28;20120;-77
2023/08/25 01:18:33;;;;;;;10.50;7.32;;;;;;;;;;5018261;28;20040;-77
2023/08/25 01:20:59;;;;;;;9.48;6.40;;;;;;;;;;5035066;28;20101;-77
2023/08/25 01:23:47;;;;;;;9.90;6.90;;;;;;;;;;5035181;28;20092;-77
2023/08/25 01:26:12;;;;;;;8.82;5.93;;;;;;;;;;5034874;28;20033;-77
2023/08/25 01:28:41;;;;;;;13.07;8.43;;;;;;;;;;5034608;28;20024;-77
2023/08/25 01:31:06;;;;;;;10.38;7.00;;;;;;;;;;5035457;28;20044;-77
2023/08/25 01:33:32;;;;;;;9.13;6.07;;;;;;;;;;5035258;28;20029;-77
2023/08/25 01:36:33;;;;;;;11.38;7.75;;;;;;;;;;5035533;28;20033;-77
2023/08/25 01:39:06;;;;;;;11.05;7.07;;;;;;;;;;4970367;28;20068;-77
2023/08/25 01:41:37;;;;;;;10.27;6.85;;;;;;;;;;5018553;28;20025;-77
2023/08/25 01:44:03;;;;;;;11.73;7.25;;;;;;;;;;5017706;28;20049;-77
2023/08/25 01:46:30;;;;;;;9.98;6.93;;;;;;;;;;5018053;28;20039;-77
2023/08/25 01:48:58;;;;;;;9.35;6.38;;;;;;;;;;5017374;28;20475;-77
2023/08/25 01:51:24;;;;;;;11.20;8.05;;;;;;;;;;5017903;28;20025;-77
2023/08/25 01:53:54;;;;;;;13.30;9.20;;;;;;;;;;5017987;28;20025;-77
2023/08/25 01:56:19;;;;;;;13.02;8.90;;;;;;;;;;5017226;28;20033;-77
2023/08/25 01:58:45;;;;;;;12.57;7.80;;;;;;;;;;5017583;28;20021;-77
2023/08/25 02:01:10;;;;;;;15.65;10.10;;;;;;;;;;5035391;28;20048;-77
2023/08/25 02:03:35;;;;;;;14.68;8.63;;;;;;;;;;5017224;28;20049;-77
2023/08/25 02:06:01;;;;;;;14.23;9.50;;;;;;;;;;5017740;28;20029;-77
2023/08/25 02:08:26;;;;;;;13.27;7.85;;;;;;;;;;5017259;28;20391;-77
2023/08/25 02:10:52;;;;;;;15.15;10.43;;;;;;;;;;5035259;28;20071;-77
2023/08/25 02:13:17;;;;;;;13.85;9.48;;;;;;;;;;5017579;28;20105;-77
2023/08/25 02:15:48;;;;;;;18.83;9.35;;;;;;;;;;5017495;28;20395;-77
2023/08/25 02:18:13;;;;;;;17.38;10.95;;;;;;;;;;5016653;28;20116;-77
2023/08/25 02:20:39;;;;;;;16.13;10.40;;;;;;;;;;5017056;28;20108;-77
2023/08/25 02:23:04;;;;;;;17.67;11.00;;;;;;;;;;5034769;28;20028;-77
2023/08/25 02:25:29;;;;;;;15.55;10.73;;;;;;;;;;5017202;28;20424;-77
2023/08/25 02:27:56;;;;;;;17.45;10.65;;;;;;;;;;5034869;28;20033;-77
2023/08/25 02:30:21;;;;;;;14.82;9.23;;;;;;;;;;5034693;28;20022;-77
2023/08/25 02:32:47;;;;;;;12.73;8.93;;;;;;;;;;5033971;28;20112;-77
2023/08/25 02:35:12;;;;;;;15.68;10.05;;;;;;;;;;5035011;28;20056;-77
2023/08/25 02:37:56;;;;;;;11.75;8.75;;;;;;;;;;5033208;28;20109;-77
2023/08/25 02:40:21;;;;;;;20.35;12.00;;;;;;;;;;5017069;28;20022;-77
2023/08/25 02:42:47;;;;;;;18.35;10.93;;;;;;;;;;5016501;28;20021;-76
2023/08/25 02:45:12;;;;;;;15.27;9.85;;;;;;;;;;5017347;28;20029;-77
2023/08/25 02:47:37;;;;;;;16.80;10.90;;;;;;;;;;5034395;28;20025;-77
2023/08/25 02:50:03;;;;;;;15.40;10.70;;;;;;;;;;5000410;28;20029;-77
2023/08/25 02:52:28;;;;;;;15.48;11.45;;;;;;;;;;5016710;28;20029;-77
2023/08/25 02:54:53;;;;;;;15.50;10.85;;;;;;;;;;5016496;28;20025;-77
2023/08/25 02:57:19;;;;;;;17.30;10.98;;;;;;;;;;5016470;28;20029;-77
2023/08/25 02:59:44;;;;;;;16.83;10.50;;;;;;;;;;5016611;28;20060;-76
2023/08/25 03:02:09;;;;;;;17.48;11.02;;;;;;;;;;5033388;28;20083;-77
2023/08/25 03:04:35;;;;;;;15.88;9.57;;;;;;;;;;5034241;28;20388;-77
2023/08/25 03:07:00;;;;;;;13.23;10.40;;;;;;;;;;5034255;28;20112;-77
2023/08/25 03:09:26;;;;;;;17.70;11.38;;;;;;;;;;5016195;28;20030;-77
2023/08/25 03:11:51;;;;;;;14.68;10.45;;;;;;;;;;5016714;28;20112;-77
2023/08/25 03:14:18;;;;;;;17.08;11.32;;;;;;;;;;5015808;28;20033;-76
2023/08/25 03:16:43;;;;;;;14.50;10.20;;;;;;;;;;5034037;28;20040;-76
2023/08/25 03:19:08;;;;;;;12.30;8.55;;;;;;;;;;5016297;28;20391;-76
2023/08/25 03:21:34;;;;;;;17.90;10.48;;;;;;;;;;5016833;28;20411;-77
2023/08/25 03:23:59;;;;;;;14.75;10.13;;;;;;;;;;5016551;28;20491;-76
2023/08/25 03:26:24;;;;;;;15.52;10.63;;;;;;;;;;5033444;28;20022;-76
2023/08/25 03:28:50;;;;;;;12.13;8.35;;;;;;;;;;5016163;28;20403;-76
2023/08/25 03:31:15;;;;;;;16.95;10.40;;;;;;;;;;5016653;28;20036;-77
2023/08/25 03:33:40;;;;;;;14.35;10.63;;;;;;;;;;5033960;28;20171;-77
2023/08/25 03:36:06;;;;;;;11.75;8.73;;;;;;;;;;5000950;28;20044;-77
2023/08/25 03:38:31;;;;;;;17.23;11.60;;;;;;;;;;5017721;28;20026;-77
2023/08/25 03:41:00;;;;;;;16.73;11.25;;;;;;;;;;5036526;28;20025;-77
2023/08/25 03:43:25;;;;;;;20.08;10.68;;;;;;;;;;5017869;28;20458;-77
2023/08/25 03:45:51;;;;;;;21.52;11.75;;;;;;;;;;5016150;28;20018;-77
2023/08/25 03:48:16;;;;;;;18.13;10.52;;;;;;;;;;5033215;28;20025;-77
2023/08/25 03:50:46;;;;;;;16.27;10.00;;;;;;;;;;5033919;28;20100;-76
2023/08/25 03:53:11;;;;;;;15.05;10.13;;;;;;;;;;5016189;28;20051;-76
2023/08/25 03:55:36;;;;;;;19.23;12.07;;;;;;;;;;5033762;28;20026;-77
2023/08/25 03:58:02;;;;;;;21.33;12.95;;;;;;;;;;5015674;28;20045;-76
2023/08/25 04:00:27;;;;;;;17.95;12.35;;;;;;;;;;5015937;28;20034;-76
2023/08/25 04:02:52;;;;;;;18.45;12.20;;;;;;;;;;5034017;28;20132;-77
2023/08/25 04:05:20;;;;;;;14.43;9.00;;;;;;;;;;4999700;28;20116;-76
2023/08/25 04:07:45;;;;;;;13.48;8.80;;;;;;;;;;5016371;28;20033;-77
2023/08/25 04:10:10;;;;;;;17.02;10.45;;;;;;;;;;5032510;28;20029;-76
2023/08/25 04:12:35;;;;;;;16.17;8.32;;;;;;;;;;5015992;28;20061;-77
2023/08/25 04:15:01;;;;;;;9.32;6.72;;;;;;;;;;5033469;28;20071;-76
2023/08/25 04:17:26;;;;;;;10.05;5.97;;;;;;;;;;5033576;28;20022;-76
2023/08/25 04:19:51;;;;;;;7.07;5.35;;;;;;;;;;5031274;28;20029;-77
2023/08/25 04:22:19;;;;;;;9.50;6.35;;;;;;;;;;5033277;28;20045;-77
2023/08/25 04:24:45;;;;;;;13.27;7.88;;;;;;;;;;5033116;28;20535;-77
2023/08/25 04:27:10;;;;;;;12.52;8.25;;;;;;;;;;5015394;28;20114;-77
2023/08/25 04:29:35;;;;;;;13.50;7.00;;;;;;;;;;5031909;28;20014;-77
2023/08/25 04:32:01;;;;;;;12.95;8.15;;;;;;;;;;5033065;28;20503;-77
2023/08/25 04:34:26;;;;;;;11.43;6.82;;;;;;;;;;5031907;28;20099;-77
2023/08/25 04:36:51;;;;;;;15.85;9.02;;;;;;;;;;5031985;28;20491;-77
2023/08/25 04:39:17;;;;;;;14.88;8.45;;;;;;;;;;5031917;28;20021;-77
2023/08/25 04:41:42;;;;;;;12.68;7.88;;;;;;;;;;5032703;28;20155;-76
2023/08/25 04:44:07;;;;;;;10.23;6.75;;;;;;;;;;5016083;28;20029;-77
2023/08/25 04:46:33;;;;;;;10.02;7.05;;;;;;;;;;5019166;28;20099;-77
2023/08/25 04:48:58;;;;;;;17.45;9.10;;;;;;;;;;5035627;28;20114;-77
2023/08/25 04:51:23;;;;;;;18.33;10.57;;;;;;;;;;5036608;28;20024;-77
2023/08/25 04:53:49;;;;;;;20.42;12.18;;;;;;;;;;5019236;28;20021;-76
2023/08/25 04:56:15;;;;;;;18.20;11.68;;;;;;;;;;5036089;28;20057;-77
2023/08/25 04:58:40;;;;;;;12.88;7.85;;;;;;;;;;5036472;28;20390;-77
2023/08/25 05:01:06;;;;;;;18.80;11.40;;;;;;;;;;5036298;28;20030;-77
2023/08/25 05:03:31;;;;;;;15.68;9.88;;;;;;;;;;5036272;28;20029;-77
2023/08/25 05:05:56;;;;;;;15.77;9.82;;;;;;;;;;5035090;28;20026;-77
2023/08/25 05:08:22;;;;;;;17.52;12.43;;;;;;;;;;5018340;28;20018;-77
2023/08/25 05:10:47;;;;;;;17.35;11.65;;;;;;;;;;5001567;28;20021;-77
2023/08/25 05:13:15;;;;;;;22.33;14.18;;;;;;;;;;5018382;28;20030;-77
2023/08/25 05:15:40;;;;;;;15.77;9.63;;;;;;;;;;5018394;28;20060;-77
2023/08/25 05:18:06;;;;;;;22.75;13.68;;;;;;;;;;5034742;28;20049;-77
2023/08/25 05:20:31;;;;;;;24.48;13.05;;;;;;;;;;5036216;28;20025;-77
2023/08/25 05:22:56;;;;;;;21.50;13.57;;;;;;;;;;5017795;28;20040;-77
2023/08/25 05:25:22;;;;;;;26.20;15.55;;;;;;;;;;5018016;28;20475;-77
2023/08/25 05:27:47;;;;;;;29.55;14.85;;;;;;;;;;5018232;28;20025;-77
2023/08/25 05:30:13;;;;;;;24.38;13.90;;;;;;;;;;5018494;28;20115;-77
2023/08/25 05:32:38;;;;;;;32.13;18.33;;;;;;;;;;5018624;28;20021;-77
2023/08/25 05:35:04;;;;;;;26.88;15.30;;;;;;;;;;5002382;28;20044;-77
2023/08/25 05:37:29;;;;;;;30.70;17.60;;;;;;;;;;5017509;28;20483;-77
2023/08/25 05:39:55;;;;;;;26.08;14.63;;;;;;;;;;5017829;28;20100;-77
2023/08/25 05:42:20;;;;;;;25.45;15.02;;;;;;;;;;5018196;28;20022;-77
2023/08/25 05:44:45;;;;;;;27.92;14.77;;;;;;;;;;5017850;28;20109;-77
2023/08/25 05:47:11;;;;;;;22.75;13.60;;;;;;;;;;5017967;28;20052;-77
2023/08/25 05:49:36;;;;;;;27.90;15.90;;;;;;;;;;5017196;28;20067;-76
2023/08/25 05:52:01;;;;;;;20.20;12.43;;;;;;;;;;5035426;28;20036;-77
2023/08/25 05:54:26;;;;;;;23.40;15.15;;;;;;;;;;5035268;28;20083;-77
2023/08/25 05:56:53;;;;;;;33.55;15.10;;;;;;;;;;5016001;28;20437;-77
2023/08/25 05:59:18;;;;;;;25.00;15.80;;;;;;;;;;5017536;28;20025;-77
2023/08/25 06:01:44;;;;;;;27.23;16.33;;;;;;;;;;5017666;28;20025;-77
2023/08/25 06:04:09;;;;;;;29.23;14.60;;;;;;;;;;5035493;28;20484;-77
2023/08/25 06:06:34;;;;;;;27.25;15.15;;;;;;;;;;5017543;28;20040;-77
2023/08/25 06:09:00;;;;;;;24.98;14.38;;;;;;;;;;5017299;28;20025;-77
2023/08/25 06:11:25;;;;;;;24.35;12.88;;;;;;;;;;5017045;28;20390;-76
2023/08/25 06:13:50;;;;;;;22.25;12.75;;;;;;;;;;5035360;28;20033;-77
2023/08/25 06:16:16;;;;;;;24.83;12.32;;;;;;;;;;5000588;28;20025;-77
2023/08/25 06:18:42;;;;;;;17.98;10.73;;;;;;;;;;5016907;28;20380;-77
2023/08/25 06:21:07;;;;;;;22.42;11.55;;;;;;;;;;5016542;28;20499;-77
2023/08/25 06:23:33;;;;;;;18.25;10.63;;;;;;;;;;5034726;28;20051;-77
2023/08/25 06:25:59;;;;;;;17.75;11.52;;;;;;;;;;5035197;28;20056;-77
2023/08/25 06:28:24;;;;;;;20.98;10.40;;;;;;;;;;5036415;28;20025;-77
2023/08/25 06:30:50;;;;;;;18.50;10.35;;;;;;;;;;5017974;28;20112;-78
2023/08/25 06:33:15;;;;;;;15.85;9.68;;;;;;;;;;5018429;28;20017;-78
2023/08/25 06:35:41;;;;;;;20.67;9.80;;;;;;;;;;5034572;28;20112;-77
2023/08/25 06:38:09;;;;;;;13.77;8.25;;;;;;;;;;5026977;28;20034;-77
2023/08/25 06:40:35;;;;;;;17.40;9.00;;;;;;;;;;5015649;28;20021;-77
2023/08/25 06:43:01;;;;;;;15.02;9.40;;;;;;;;;;5033795;28;20056;-77
2023/08/25 06:45:27;;;;;;;16.20;9.23;;;;;;;;;;5016689;28;20052;-78
2023/08/25 06:47:54;;;;;;;23.15;9.68;;;;;;;;;;5032961;28;20088;-76
2023/08/25 06:50:19;;;;;;;13.73;8.82;;;;;;;;;;5035147;28;20028;-76
2023/08/25 06:52:45;;;;;;;16.23;9.00;;;;;;;;;;5034041;28;20021;-76
2023/08/25 06:55:11;;;;;;;17.42;8.35;;;;;;;;;;5033806;28;20021;-76
2023/08/25 06:57:36;;;;;;;15.50;8.75;;;;;;;;;;5033742;28;20442;-76
2023/08/25 07:00:04;;;;;;;13.77;8.20;;;;;;;;;;5016029;28;20025;-76
2023/08/25 07:02:30;;;;;;;14.95;8.40;;;;;;;;;;5033434;28;20037;-77
2023/08/25 07:04:55;;;;;;;15.38;8.50;;;;;;;;;;5034140;28;20034;-76
2023/08/25 07:07:27;;;;;;;12.52;7.28;;;;;;;;;;5034004;28;20036;-76
2023/08/25 07:09:53;;;;;;;17.52;7.00;;;;;;;;;;4999747;28;20079;-76
2023/08/25 07:12:18;;;;;;;19.75;9.30;;;;;;;;;;5016520;28;20115;-76
2023/08/25 07:14:44;;;;;;;16.70;8.07;;;;;;;;;;5016016;28;20109;-76
2023/08/25 07:17:09;;;;;;;18.75;8.43;;;;;;;;;;5017887;28;20025;-76
2023/08/25 07:19:34;;;;;;;14.82;8.05;;;;;;;;;;5034168;28;20033;-76
2023/08/25 07:21:59;;;;;;;22.00;10.13;;;;;;;;;;5015914;28;20040;-74
2023/08/25 07:24:25;;;;;;;12.50;7.18;;;;;;;;;;5036361;28;20025;-75
2023/08/25 07:26:50;;;;;;;17.23;10.63;;;;;;;;;;5018184;28;20061;-75
2023/08/25 07:29:15;;;;;;;15.63;8.65;;;;;;;;;;5017014;28;20024;-76
2023/08/25 07:31:41;;;;;;;16.65;8.45;;;;;;;;;;5016110;28;20028;-76
2023/08/25 07:34:06;;;;;;;15.60;9.07;;;;;;;;;;5015917;28;20059;-75
2023/08/25 07:36:31;;;;;;;17.10;9.07;;;;;;;;;;5016165;28;20455;-75
2023/08/25 07:38:57;;;;;;;18.45;9.85;;;;;;;;;;5015715;28;20029;-75
2023/08/25 07:41:22;;;;;;;25.73;12.73;;;;;;;;;;5016695;28;20021;-75
2023/08/25 07:43:48;;;;;;;17.92;10.35;;;;;;;;;;5033592;28;20045;-75
2023/08/25 07:46:14;;;;;;;13.65;8.98;;;;;;;;;;5032728;28;20503;-75
2023/08/25 07:48:39;;;;;;;18.63;8.57;;;;;;;;;;5015845;28;20052;-75
2023/08/25 07:51:04;;;;;;;19.00;9.13;;;;;;;;;;5034205;28;20022;-75
2023/08/25 07:53:31;;;;;;;17.42;9.40;;;;;;;;;;5032115;28;20029;-75
2023/08/25 07:55:57;;;;;;;13.15;7.63;;;;;;;;;;5015890;28;20022;-74
2023/08/25 07:58:22;;;;;;;14.82;8.82;;;;;;;;;;5015698;28;20479;-74
2023/08/25 08:00:49;;;;;;;10.70;6.70;;;;;;;;;;5015304;28;20029;-75
2023/08/25 08:03:15;;;;;;;16.60;6.57;;;;;;;;;;5033502;28;20491;-76
2023/08/25 08:05:40;;;;;;;9.95;6.95;;;;;;;;;;5033202;28;20049;-75
2023/08/25 08:08:05;;;;;;;12.48;7.13;;;;;;;;;;5012172;28;20487;-75
2023/08/25 08:10:31;;;;;;;10.68;6.13;;;;;;;;;;5015268;28;20033;-74
2023/08/25 08:12:59;;;;;;;11.45;5.50;;;;;;;;;;5015787;28;20037;-75
2023/08/25 08:15:25;;;;;;;14.57;6.63;;;;;;;;;;5016016;28;20044;-75
2023/08/25 08:17:50;;;;;;;7.97;4.93;;;;;;;;;;5015924;28;20045;-75
2023/08/25 08:20:16;;;;;;;8.93;5.43;;;;;;;;;;5018182;28;20122;-74
2023/08/25 08:22:42;;;;;;;8.77;5.35;;;;;;;;;;5036381;28;20104;-75
2023/08/25 08:25:11;;;;;;;9.20;5.18;;;;;;;;;;5037086;28;20064;-74
2023/08/25 08:27:37;;;;;;;8.75;5.13;;;;;;;;;;5002898;28;20022;-74
2023/08/25 08:30:03;;;;;;;11.60;5.40;;;;;;;;;;5019126;28;20057;-74
2023/08/25 08:32:28;;;;;;;11.45;5.53;;;;;;;;;;5019177;28;20032;-74
2023/08/25 08:34:53;;;;;;;8.50;5.00;;;;;;;;;;5018937;28;20021;-74
2023/08/25 08:37:19;;;;;;;12.35;5.28;;;;;;;;;;5037157;28;20040;-74
2023/08/25 08:39:44;;;;;;;7.88;5.03;;;;;;;;;;5018844;28;20116;-73
2023/08/25 08:42:12;;;;;;;8.38;5.65;;;;;;;;;;5018824;28;20124;-74
2023/08/25 08:44:38;;;;;;;11.50;5.75;;;;;;;;;;5018424;28;20047;-73
2023/08/25 08:47:04;;;;;;;9.95;5.28;;;;;;;;;;5018671;28;20072;-74
2023/08/25 08:49:30;;;;;;;8.68;5.18;;;;;;;;;;5036228;28;20418;-73
2023/08/25 08:51:55;;;;;;;7.72;4.88;;;;;;;;;;5018454;28;20026;-73
2023/08/25 08:54:24;;;;;;;8.50;5.07;;;;;;;;;;5033841;28;20025;-73
2023/08/25 08:56:51;;;;;;;9.45;5.75;;;;;;;;;;5035127;28;20025;-73
2023/08/25 08:59:16;;;;;;;9.77;5.22;;;;;;;;;;5017827;28;20425;-73
2023/08/25 09:01:41;;;;;;;8.52;5.15;;;;;;;;;;5035982;28;20025;-73
2023/08/25 09:04:08;;;;;;;11.43;5.65;;;;;;;;;;5018034;28;20076;-73
2023/08/25 09:06:37;;;;;;;6.13;4.80;;;;;;;;;;5034236;28;20036;-72
2023/08/25 09:09:05;;;;;;;7.90;4.60;;;;;;;;;;5018677;28;20510;-73
2023/08/25 09:11:33;;;;;;;8.68;4.40;;;;;;;;;;5018114;28;20036;-74
2023/08/25 09:14:03;;;;;;;7.35;4.57;;;;;;;;;;5034523;28;20056;-74
2023/08/25 09:16:30;;;;;;;6.47;4.32;;;;;;;;;;5018607;28;20029;-74
2023/08/25 09:18:59;;;;;;;9.60;4.75;;;;;;;;;;5036019;28;20056;-74
2023/08/25 09:21:24;;;;;;;5.80;4.15;;;;;;;;;;5018123;28;20075;-76
2023/08/25 09:23:58;;;;;;;7.75;4.25;;;;;;;;;;5018594;28;20396;-76
2023/08/25 09:26:24;;;;;;;8.25;4.40;;;;;;;;;;5034895;28;20518;-76
2023/08/25 09:28:57;;;;;;;7.88;4.80;;;;;;;;;;5028497;23;20043;-76
2023/08/25 09:31:27;;;;;;;8.20;4.50;;;;;;;;;;5017210;28;20022;-75
2023/08/25 09:34:00;;;;;;;8.27;4.55;;;;;;;;;;5034761;28;20545;-76
2023/08/25 09:36:25;;;;;;;10.27;5.38;;;;;;;;;;5018487;28;20036;-76
2023/08/25 09:38:52;;;;;;;7.68;4.70;;;;;;;;;;5034191;28;20029;-76
2023/08/25 09:41:28;;;;;;;8.07;4.47;;;;;;;;;;5018144;28;20397;-76
2023/08/25 09:44:01;;;;;;;5.63;3.92;;;;;;;;;;5018210;28;20036;-76
2023/08/25 09:46:27;;;;;;;5.25;4.43;;;;;;;;;;5018173;28;20037;-75
2023/08/25 09:48:54;;;;;;;7.18;4.22;;;;;;;;;;5035206;28;20499;-76
2023/08/25 09:51:19;;;;;;;7.13;4.53;;;;;;;;;;5018001;28;20083;-76
2023/08/25 09:53:46;;;;;;;6.38;4.18;;;;;;;;;;5017957;28;20049;-76
2023/08/25 09:56:13;;;;;;;8.23;4.10;;;;;;;;;;5017623;28;20029;-76
2023/08/25 09:58:39;;;;;;;6.45;3.92;;;;;;;;;;5017498;28;20076;-77
2023/08/25 10:01:06;;;;;;;6.78;3.92;;;;;;;;;;5035554;28;20022;-77
2023/08/25 10:03:31;;;;;;;6.75;4.10;;;;;;;;;;5017900;28;20030;-76
2023/08/25 10:05:58;;;;;;;8.18;3.63;;;;;;;;;;5017586;28;20044;-77
2023/08/25 10:08:24;;;;;;;5.78;3.50;;;;;;;;;;5017683;28;20066;-76
2023/08/25 10:10:50;;;;;;;4.28;3.40;;;;;;;;;;5035233;28;20122;-76
2023/08/25 10:13:18;;;;;;;7.38;3.05;;;;;;;;;;5000918;28;20517;-76
2023/08/25 10:15:45;;;;;;;3.85;3.22;;;;;;;;;;5018132;28;20029;-77
2023/08/25 10:18:11;;;;;;;7.18;4.05;;;;;;;;;;5035214;28;20025;-76
2023/08/25 10:20:39;;;;;;;7.10;3.83;;;;;;;;;;5035383;28;20083;-76
2023/08/25 10:23:06;;;;;;;7.55;3.88;;;;;;;;;;5017185;28;20029;-77
2023/08/25 10:25:32;;;;;;;8.07;3.80;;;;;;;;;;5017905;28;20021;-77
2023/08/25 10:27:58;;;;;;;9.02;4.10;;;;;;;;;;5017311;28;20040;-77
2023/08/25 10:30:24;;;;;;;8.60;3.92;;;;;;;;;;5016957;28;20022;-76
2023/08/25 10:33:00;;;;;;;9.95;4.40;;;;;;;;;;5011099;28;20076;-77
2023/08/25 10:35:43;;;;;;;8.32;3.47;;;;;;;;;;5026657;28;20034;-76
2023/08/25 10:38:30;;;;;;;5.32;3.58;;;;;;;;;;5021371;28;20033;-76
2023/08/25 10:40:56;;;;;;;8.25;3.97;;;;;;;;;;5025908;28;20549;-76
2023/08/25 10:43:32;;;;;;;5.93;3.67;;;;;;;;;;5014482;28;20507;-76
2023/08/25 10:46:00;;;;;;;6.13;4.30;;;;;;;;;;5002872;28;20080;-75
2023/08/25 10:48:26;;;;;;;6.18;3.75;;;;;;;;;;5030072;28;20013;-77
2023/08/25 10:51:11;;;;;;;6.88;3.30;;;;;;;;;;5015095;28;20443;-76
2023/08/25 10:53:44;;;;;;;5.57;3.60;;;;;;;;;;5033678;28;20049;-76
2023/08/25 10:56:21;;;;;;;5.80;3.95;;;;;;;;;;5035053;28;20021;-76
2023/08/25 10:58:56;;;;;;;5.97;3.70;;;;;;;;;;5033711;28;20028;-76
2023/08/25 11:01:37;;;;;;;7.07;3.80;;;;;;;;;;5032761;28;20108;-76
2023/08/25 11:04:23;;;;;;;6.45;3.63;;;;;;;;;;5022867;28;20029;-76
2023/08/25 11:06:50;;;;;;;6.30;4.07;;;;;;;;;;5033462;28;20131;-76
2023/08/25 11:09:18;;;;;;;5.30;3.33;;;;;;;;;;5029503;28;20025;-76
2023/08/25 11:11:47;;;;;;;5.28;3.55;;;;;;;;;;5026814;28;20391;-76
2023/08/25 11:14:13;;;;;;;7.03;4.03;;;;;;;;;;5034051;28;20499;-76
2023/08/25 11:16:42;;;;;;;7.45;4.07;;;;;;;;;;5016854;28;20041;-75
2023/08/25 11:19:11;;;;;;;6.65;3.78;;;;;;;;;;5033564;28;20083;-76
2023/08/25 11:21:36;;;;;;;5.45;3.88;;;;;;;;;;5033514;28;20372;-76
2023/08/25 11:24:02;;;;;;;5.18;3.92;;;;;;;;;;5034758;28;20025;-76
2023/08/25 11:26:27;;;;;;;7.05;4.45;;;;;;;;;;5034706;28;20021;-76
2023/08/25 11:28:53;;;;;;;8.20;4.00;;;;;;;;;;5008506;23;20101;-75
2023/08/25 11:31:22;;;;;;;5.50;3.38;;;;;;;;;;4968789;28;20031;-75
2023/08/25 11:33:49;;;;;;;6.78;3.38;;;;;;;;;;4973626;28;20029;-75
2023/08/25 11:36:17;;;;;;;6.53;3.65;;;;;;;;;;4965081;28;20022;-75
2023/08/25 11:38:46;;;;;;;7.47;3.67;;;;;;;;;;4956495;28;20038;-75
2023/08/25 11:41:14;;;;;;;6.65;3.25;;;;;;;;;;4956594;28;20437;-76
2023/08/25 11:43:39;;;;;;;7.05;4.00;;;;;;;;;;4975276;28;20034;-76
2023/08/25 11:46:09;;;;;;;6.80;3.58;;;;;;;;;;4973737;28;20022;-76
2023/08/25 11:48:35;;;;;;;9.25;3.83;;;;;;;;;;4975072;28;20065;-76
2023/08/25 11:51:00;;;;;;;6.35;3.08;;;;;;;;;;4972949;28;20064;-76
2023/08/25 11:53:26;;;;;;;7.85;3.90;;;;;;;;;;4974768;28;20030;-76
2023/08/25 11:56:04;;;;;;;5.30;3.65;;;;;;;;;;4977339;28;20029;-76
2023/08/25 11:58:30;;;;;;;4.97;3.83;;;;;;;;;;4977751;28;20046;-76
2023/08/25 12:01:14;;;;;;;8.82;3.50;;;;;;;;;;4977350;28;20034;-76
2023/08/25 12:03:43;;;;;;;5.35;3.60;;;;;;;;;;4961178;28;20023;-75
2023/08/25 12:06:10;;;;;;;5.20;3.17;;;;;;;;;;4978516;28;20031;-75
2023/08/25 12:08:39;;;;;;;4.68;2.85;;;;;;;;;;4978525;28;20021;-75
2023/08/25 12:11:05;;;;;;;5.45;3.10;;;;;;;;;;4977599;28;20477;-75
2023/08/25 12:13:32;;;;;;;6.30;3.92;;;;;;;;;;4977158;28;20114;-76
2023/08/25 12:15:58;;;;;;;6.95;3.20;;;;;;;;;;4977703;28;20493;-75
2023/08/25 12:18:32;;;;;;;6.72;3.53;;;;;;;;;;4977281;28;20033;-75
2023/08/25 12:20:57;;;;;;;6.45;4.15;;;;;;;;;;4977791;28;20019;-75
2023/08/25 12:23:22;;;;;;;6.57;3.80;;;;;;;;;;4977413;28;20030;-76
2023/08/25 12:25:48;;;;;;;5.05;4.07;;;;;;;;;;4993238;28;20489;-75
2023/08/25 12:28:17;;;;;;;6.80;3.83;;;;;;;;;;4976615;28;20045;-75
2023/08/25 12:30:42;;;;;;;5.40;3.88;;;;;;;;;;4978314;28;20033;-75
2023/08/25 12:33:07;;;;;;;7.43;3.70;;;;;;;;;;4977041;28;20094;-75
2023/08/25 12:35:33;;;;;;;5.80;3.72;;;;;;;;;;4978132;28;20023;-76
2023/08/25 12:37:58;;;;;;;9.52;3.50;;;;;;;;;;4976572;28;20081;-76
2023/08/25 12:40:24;;;;;;;5.47;3.80;;;;;;;;;;4977960;28;20031;-76
2023/08/25 12:42:51;;;;;;;7.60;3.65;;;;;;;;;;4976941;28;20101;-76
2023/08/25 12:45:18;;;;;;;7.55;3.97;;;;;;;;;;4977263;28;20027;-76
2023/08/25 12:47:43;;;;;;;6.22;4.05;;;;;;;;;;4976662;28;20026;-76
2023/08/25 12:50:09;;;;;;;5.30;3.70;;;;;;;;;;4977710;28;20097;-76
2023/08/25 12:52:36;;;;;;;8.50;3.95;;;;;;;;;;4977576;28;20030;-76
2023/08/25 12:55:01;;;;;;;4.80;3.33;;;;;;;;;;4977734;28;20472;-76
2023/08/25 12:57:27;;;;;;;4.80;3.70;;;;;;;;;;4976807;28;20062;-76
2023/08/25 12:59:52;;;;;;;6.93;3.90;;;;;;;;;;4976633;28;20045;-76
2023/08/25 13:02:17;;;;;;;7.97;3.78;;;;;;;;;;4978029;28;20082;-76
2023/08/25 13:04:43;;;;;;;5.35;3.60;;;;;;;;;;4976125;28;20504;-76
2023/08/25 13:07:08;;;;;;;5.80;3.60;;;;;;;;;;4992351;28;20030;-76
2023/08/25 13:09:33;;;;;;;5.53;3.33;;;;;;;;;;4977560;28;20065;-76
2023/08/25 13:11:59;;;;;;;6.03;3.83;;;;;;;;;;4977360;28;20026;-75
2023/08/25 13:14:25;;;;;;;7.55;3.80;;;;;;;;;;4977723;28;20077;-76
2023/08/25 13:16:50;;;;;;;4.95;3.60;;;;;;;;;;4976027;28;20022;-76
2023/08/25 13:19:16;;;;;;;6.18;3.40;;;;;;;;;;4977562;28;20490;-77
2023/08/25 13:21:41;;;;;;;4.70;3.72;;;;;;;;;;4977457;28;20054;-76
2023/08/25 13:24:06;;;;;;;5.20;3.40;;;;;;;;;;4976194;28;20023;-76
2023/08/25 13:26:32;;;;;;;7.20;3.55;;;;;;;;;;4976601;28;20023;-76
2023/08/25 13:28:57;;;;;;;6.53;3.38;;;;;;;;;;5000325;23;20482;-76
2023/08/25 13:31:22;;;;;;;4.97;3.70;;;;;;;;;;5016185;28;20030;-76
2023/08/25 13:33:48;;;;;;;6.47;4.00;;;;;;;;;;5015899;28;20030;-76
2023/08/25 13:36:15;;;;;;;5.18;3.50;;;;;;;;;;4998811;28;20026;-77
2023/08/25 13:38:40;;;;;;;5.18;2.97;;;;;;;;;;5016059;28;20400;-76
2023/08/25 13:41:05;;;;;;;8.10;3.45;;;;;;;;;;5016003;28;20021;-76
2023/08/25 13:43:31;;;;;;;4.57;3.00;;;;;;;;;;5014760;28;20030;-77
2023/08/25 13:45:56;;;;;;;7.47;3.63;;;;;;;;;;5015415;28;20022;-76
2023/08/25 13:48:21;;;;;;;7.32;3.78;;;;;;;;;;5014526;28;20124;-76
2023/08/25 13:50:49;;;;;;;5.85;3.50;;;;;;;;;;5015059;28;20021;-76
2023/08/25 13:53:14;;;;;;;6.35;3.58;;;;;;;;;;5016028;28;20499;-77
2023/08/25 13:55:39;;;;;;;5.28;4.22;;;;;;;;;;5014057;28;20030;-76
2023/08/25 13:58:05;;;;;;;8.07;3.90;;;;;;;;;;5014428;28;20026;-77
2023/08/25 14:00:30;;;;;;;5.50;3.75;;;;;;;;;;5015673;28;20018;-76
2023/08/25 14:02:55;;;;;;;4.78;3.22;;;;;;;;;;5014404;28;20396;-76
2023/08/25 14:05:21;;;;;;;6.00;3.70;;;;;;;;;;5014925;28;20029;-76
2023/08/25 14:07:48;;;;;;;4.32;2.90;;;;;;;;;;5015794;28;20396;-76
2023/08/25 14:10:13;;;;;;;5.53;3.75;;;;;;;;;;5013847;28;20018;-76
2023/08/25 14:12:39;;;;;;;6.65;3.80;;;;;;;;;;5015175;28;20352;-76
2023/08/25 14:15:06;;;;;;;5.43;3.80;;;;;;;;;;5013729;28;20480;-75
2023/08/25 14:17:32;;;;;;;8.82;4.07;;;;;;;;;;5014474;28;20037;-76
2023/08/25 14:19:57;;;;;;;7.03;3.80;;;;;;;;;;4997571;28;20022;-76
2023/08/25 14:22:23;;;;;;;4.25;3.80;;;;;;;;;;5015329;28;20030;-76
2023/08/25 14:24:48;;;;;;;5.43;3.38;;;;;;;;;;5015176;28;20057;-75
2023/08/25 14:27:14;;;;;;;8.23;3.60;;;;;;;;;;5014532;28;20060;-76
2023/08/25 14:29:39;;;;;;;7.60;4.40;;;;;;;;;;5015131;28;20038;-76